• Join FlightAware (Why Join?)
  • Login
  • US Flag 
03:51PM EDT


 

Airport Tracker/Info


-or-


 

Live Flight TrackerFlight Track Log ✈ EJA982 ✈ 26-Jul-2013 ✈ KCRQ - KBUR

Flight Track Log - Related Links

Times and Time Zones

All times are in EDT time to prevent confusion due to time zone crossing. See the EJA982 flight status page for this flight to view local times or setup timezone preferences in your user account.

Time Position Orientation Groundspeed Altitude Reporting Facility
EDT Latitude Longitude Course Direction KTS MPH feet Rate Location/Type
12:35AM 33.1167 -117.3667 320° Northwest 240 276 3,500  Level Southern California TRACON
12:36AM 33.1333 -117.4333 287° West 254 292 6,700 2,820 Climbing Southern California TRACON
12:37AM 33.1667 -117.5167 296° West 290 334 9,200 1,560 Climbing Southern California TRACON
12:38AM 33.2333 -117.6000 314° West 359 413 10,000 360 Climbing Southern California TRACON
12:39AM 33.3000 -117.7000 309° West 408 470 10,000  Level Southern California TRACON
12:40AM 33.3833 -117.7833 320° Northwest 401 461 10,000  Level Southern California TRACON
12:41AM 33.4689 -117.6186 320° Northwest  Level FlightAware Approximate
12:41AM 33.4667 -117.8833 315° West 382 440 10,000  Level Southern California TRACON
12:42AM 33.5333 -117.9667 314° West 297 342 9,400 -1,020 Descending Southern California TRACON
12:43AM 33.5833 -118.0167 320° Northwest 283 326 8,100 -1,560 Descending Southern California TRACON
12:44AM 33.6111 -118.0492 316° Northwest 284 327 7,100 -1,860 Descending Los Angeles Center
12:44AM 33.6500 -118.0833 324° Northwest 284 327 6,100 -720 Descending Southern California TRACON
12:45AM 33.7000 -118.1500 312° West 269 310 6,100  Level Southern California TRACON
12:46AM 33.7181 -118.1758 310° West 270 311 6,100 -120 Level Los Angeles Center
12:47AM 33.7817 -118.2508 316° Northwest 272 313 6,000 -120 Descending Los Angeles Center
12:48AM 33.8325 -118.3111 315° West 265 305 5,900 -540 Descending Los Angeles Center
12:49AM 33.8794 -118.3678 315° West 249 287 5,000 -480 Descending Los Angeles Center
12:50AM 33.9278 -118.4250 316° Northwest 245 282 5,000  Level Los Angeles Center
12:51AM 33.9944 -118.4792 326° Northwest 261 300 5,100  Climbing Los Angeles Center
12:52AM 34.0586 -118.5297 327° Northwest 256 295 5,000 -60 Descending Los Angeles Center
12:53AM 34.1142 -118.5747 326° Northwest 243 280 5,000 -540 Level Los Angeles Center
12:54AM 34.1722 -118.5833 353° North 224 258 4,000 -900 Descending Los Angeles Center
12:55AM 34.2008 -118.5183 62° Northeast 207 238 3,000 -780 Descending Los Angeles Center
12:56AM 34.1994 -118.4594 92° East 188 216 2,300 -780 Descending Los Angeles Center
12:57AM 34.1983 -118.4144 92° East 161 185 1,500 -660 Descending Los Angeles Center
12:58AM 34.1986 -118.3717 90° East 143 165 1,000 -540 Descending Los Angeles Center